sensor_id;sensor_type;location;lat;lon;timestamp;temperature;humidity
34640;DHT22;22600;48.186;11.526;2023-05-07T00:00:16;23.80;51.50
34640;DHT22;22600;48.186;11.526;2023-05-07T00:02:43;23.80;51.50
34640;DHT22;22600;48.186;11.526;2023-05-07T00:05:09;23.80;51.50
34640;DHT22;22600;48.186;11.526;2023-05-07T00:07:35;25.80;52.60
34640;DHT22;22600;48.186;11.526;2023-05-07T00:10:01;23.80;51.50
34640;DHT22;22600;48.186;11.526;2023-05-07T00:12:26;23.80;51.50
34640;DHT22;22600;48.186;11.526;2023-05-07T00:14:52;23.80;51.50
34640;DHT22;22600;48.186;11.526;2023-05-07T00:17:17;23.80;51.50
34640;DHT22;22600;48.186;11.526;2023-05-07T00:19:42;23.80;51.50
34640;DHT22;22600;48.186;11.526;2023-05-07T00:22:08;23.80;51.50
34640;DHT22;22600;48.186;11.526;2023-05-07T00:24:33;23.80;51.50
34640;DHT22;22600;48.186;11.526;2023-05-07T00:26:59;23.80;51.50
34640;DHT22;22600;48.186;11.526;2023-05-07T00:29:25;23.80;51.50
34640;DHT22;22600;48.186;11.526;2023-05-07T00:31:51;23.80;51.50
34640;DHT22;22600;48.186;11.526;2023-05-07T00:34:16;23.80;51.50
34640;DHT22;22600;48.186;11.526;2023-05-07T00:36:42;23.80;51.50
34640;DHT22;22600;48.186;11.526;2023-05-07T00:39:07;23.80;51.50
34640;DHT22;22600;48.186;11.526;2023-05-07T00:41:33;23.80;51.50
34640;DHT22;22600;48.186;11.526;2023-05-07T00:43:58;23.80;51.50
34640;DHT22;22600;48.186;11.526;2023-05-07T00:46:24;23.80;51.50
34640;DHT22;22600;48.186;11.526;2023-05-07T00:48:50;23.80;51.50
34640;DHT22;22600;48.186;11.526;2023-05-07T00:51:15;23.80;51.50
34640;DHT22;22600;48.186;11.526;2023-05-07T00:53:41;23.80;51.50
34640;DHT22;22600;48.186;11.526;2023-05-07T00:56:07;23.80;51.50
34640;DHT22;22600;48.186;11.526;2023-05-07T00:58:33;23.80;51.50
34640;DHT22;22600;48.186;11.526;2023-05-07T01:00:59;23.80;51.50
34640;DHT22;22600;48.186;11.526;2023-05-07T01:03:24;23.80;51.50
34640;DHT22;22600;48.186;11.526;2023-05-07T01:05:50;23.80;51.50
34640;DHT22;22600;48.186;11.526;2023-05-07T01:08:17;23.80;51.50
34640;DHT22;22600;48.186;11.526;2023-05-07T01:10:43;23.70;51.50
34640;DHT22;22600;48.186;11.526;2023-05-07T01:13:09;23.70;51.50
34640;DHT22;22600;48.186;11.526;2023-05-07T01:15:35;24.90;52.10
34640;DHT22;22600;48.186;11.526;2023-05-07T01:18:01;23.80;51.50
34640;DHT22;22600;48.186;11.526;2023-05-07T01:20:27;23.80;51.50
34640;DHT22;22600;48.186;11.526;2023-05-07T01:22:53;23.80;51.50
34640;DHT22;22600;48.186;11.526;2023-05-07T01:25:18;23.80;51.60
34640;DHT22;22600;48.186;11.526;2023-05-07T01:27:44;23.70;51.40
34640;DHT22;22600;48.186;11.526;2023-05-07T01:30:09;23.80;51.50
34640;DHT22;22600;48.186;11.526;2023-05-07T01:32:36;23.80;51.50
34640;DHT22;22600;48.186;11.526;2023-05-07T01:35:03;23.80;51.50
34640;DHT22;22600;48.186;11.526;2023-05-07T01:37:30;23.80;51.50
34640;DHT22;22600;48.186;11.526;2023-05-07T01:39:56;23.80;51.50
34640;DHT22;22600;48.186;11.526;2023-05-07T01:42:21;23.80;51.50
34640;DHT22;22600;48.186;11.526;2023-05-07T01:44:47;23.80;51.50
34640;DHT22;22600;48.186;11.526;2023-05-07T01:47:13;23.80;51.50
34640;DHT22;22600;48.186;11.526;2023-05-07T01:49:39;27.00;53.90
34640;DHT22;22600;48.186;11.526;2023-05-07T01:52:05;23.80;51.50
34640;DHT22;22600;48.186;11.526;2023-05-07T01:54:30;23.80;51.50
34640;DHT22;22600;48.186;11.526;2023-05-07T01:56:56;23.80;51.60
34640;DHT22;22600;48.186;11.526;2023-05-07T01:59:22;23.90;51.50
34640;DHT22;22600;48.186;11.526;2023-05-07T02:01:47;23.80;51.50
34640;DHT22;22600;48.186;11.526;2023-05-07T02:04:13;23.80;51.50
34640;DHT22;22600;48.186;11.526;2023-05-07T02:06:38;25.90;52.70
34640;DHT22;22600;48.186;11.526;2023-05-07T02:09:04;23.80;51.50
34640;DHT22;22600;48.186;11.526;2023-05-07T02:11:29;26.30;52.90
34640;DHT22;22600;48.186;11.526;2023-05-07T02:13:55;23.80;51.60
34640;DHT22;22600;48.186;11.526;2023-05-07T02:16:20;23.80;51.50
34640;DHT22;22600;48.186;11.526;2023-05-07T02:18:47;23.70;51.50
34640;DHT22;22600;48.186;11.526;2023-05-07T02:21:12;23.80;51.50
34640;DHT22;22600;48.186;11.526;2023-05-07T02:23:37;23.80;51.50
34640;DHT22;22600;48.186;11.526;2023-05-07T02:26:03;23.80;51.50
34640;DHT22;22600;48.186;11.526;2023-05-07T02:28:29;23.80;51.50
34640;DHT22;22600;48.186;11.526;2023-05-07T02:30:54;23.80;51.50
34640;DHT22;22600;48.186;11.526;2023-05-07T02:33:20;23.80;51.60
34640;DHT22;22600;48.186;11.526;2023-05-07T02:35:45;23.90;51.60
34640;DHT22;22600;48.186;11.526;2023-05-07T02:38:11;23.80;51.60
34640;DHT22;22600;48.186;11.526;2023-05-07T02:40:36;23.80;51.50
34640;DHT22;22600;48.186;11.526;2023-05-07T02:43:04;23.80;51.50
34640;DHT22;22600;48.186;11.526;2023-05-07T02:45:31;23.70;51.50
34640;DHT22;22600;48.186;11.526;2023-05-07T02:47:56;23.70;51.50
34640;DHT22;22600;48.186;11.526;2023-05-07T02:50:22;23.80;51.60
34640;DHT22;22600;48.186;11.526;2023-05-07T02:52:47;23.80;51.50
34640;DHT22;22600;48.186;11.526;2023-05-07T02:55:13;23.80;51.50
34640;DHT22;22600;48.186;11.526;2023-05-07T02:57:39;25.70;52.50
34640;DHT22;22600;48.186;11.526;2023-05-07T03:00:14;23.70;51.50
34640;DHT22;22600;48.186;11.526;2023-05-07T03:02:40;23.80;51.50
34640;DHT22;22600;48.186;11.526;2023-05-07T03:05:05;23.80;51.50
34640;DHT22;22600;48.186;11.526;2023-05-07T03:07:31;23.80;51.50
34640;DHT22;22600;48.186;11.526;2023-05-07T03:09:56;23.80;51.60
34640;DHT22;22600;48.186;11.526;2023-05-07T03:12:22;23.80;51.60
34640;DHT22;22600;48.186;11.526;2023-05-07T03:14:47;23.70;51.50
34640;DHT22;22600;48.186;11.526;2023-05-07T03:17:13;23.80;51.60
34640;DHT22;22600;48.186;11.526;2023-05-07T03:19:38;23.80;51.50
34640;DHT22;22600;48.186;11.526;2023-05-07T03:22:04;23.80;51.50
34640;DHT22;22600;48.186;11.526;2023-05-07T03:24:29;23.80;51.60
34640;DHT22;22600;48.186;11.526;2023-05-07T03:26:55;23.80;51.60
34640;DHT22;22600;48.186;11.526;2023-05-07T03:29:20;23.80;51.60
34640;DHT22;22600;48.186;11.526;2023-05-07T03:31:46;23.70;51.50
34640;DHT22;22600;48.186;11.526;2023-05-07T03:34:11;23.80;51.50
34640;DHT22;22600;48.186;11.526;2023-05-07T03:36:37;23.80;51.50
34640;DHT22;22600;48.186;11.526;2023-05-07T03:39:02;23.80;51.60
34640;DHT22;22600;48.186;11.526;2023-05-07T03:41:27;23.80;51.60
34640;DHT22;22600;48.186;11.526;2023-05-07T03:43:54;23.70;51.50
34640;DHT22;22600;48.186;11.526;2023-05-07T03:46:20;23.80;51.60
34640;DHT22;22600;48.186;11.526;2023-05-07T03:48:45;23.80;51.60
34640;DHT22;22600;48.186;11.526;2023-05-07T03:51:11;23.80;51.60
34640;DHT22;22600;48.186;11.526;2023-05-07T03:53:36;23.80;51.60
34640;DHT22;22600;48.186;11.526;2023-05-07T03:56:02;23.80;51.60
34640;DHT22;22600;48.186;11.526;2023-05-07T03:58:27;23.80;51.60
34640;DHT22;22600;48.186;11.526;2023-05-07T04:00:53;23.80;51.60
34640;DHT22;22600;48.186;11.526;2023-05-07T04:03:18;23.80;51.60
34640;DHT22;22600;48.186;11.526;2023-05-07T04:05:44;24.80;52.00
34640;DHT22;22600;48.186;11.526;2023-05-07T04:08:09;23.80;51.50
34640;DHT22;22600;48.186;11.526;2023-05-07T04:10:35;23.80;51.60
34640;DHT22;22600;48.186;11.526;2023-05-07T04:13:00;25.90;52.70
34640;DHT22;22600;48.186;11.526;2023-05-07T04:15:26;23.80;51.60
34640;DHT22;22600;48.186;11.526;2023-05-07T04:17:51;23.70;51.50
34640;DHT22;22600;48.186;11.526;2023-05-07T04:20:17;23.80;51.60
34640;DHT22;22600;48.186;11.526;2023-05-07T04:22:42;23.80;51.60
34640;DHT22;22600;48.186;11.526;2023-05-07T04:25:08;23.70;51.50
34640;DHT22;22600;48.186;11.526;2023-05-07T04:27:37;23.80;51.60
34640;DHT22;22600;48.186;11.526;2023-05-07T04:30:03;23.80;51.60
34640;DHT22;22600;48.186;11.526;2023-05-07T04:32:29;23.70;51.50
34640;DHT22;22600;48.186;11.526;2023-05-07T04:34:55;23.80;51.60
34640;DHT22;22600;48.186;11.526;2023-05-07T04:37:20;23.70;51.50
34640;DHT22;22600;48.186;11.526;2023-05-07T04:39:46;27.10;53.50
34640;DHT22;22600;48.186;11.526;2023-05-07T04:42:14;23.80;51.60
34640;DHT22;22600;48.186;11.526;2023-05-07T04:44:39;23.80;51.60
34640;DHT22;22600;48.186;11.526;2023-05-07T04:47:05;23.80;51.60
34640;DHT22;22600;48.186;11.526;2023-05-07T04:49:30;23.80;51.50
34640;DHT22;22600;48.186;11.526;2023-05-07T04:51:56;23.80;52.10
34640;DHT22;22600;48.186;11.526;2023-05-07T04:54:21;23.80;51.60
34640;DHT22;22600;48.186;11.526;2023-05-07T04:56:47;23.80;51.50
34640;DHT22;22600;48.186;11.526;2023-05-07T04:59:12;23.80;51.50
34640;DHT22;22600;48.186;11.526;2023-05-07T05:01:38;23.80;51.60
34640;DHT22;22600;48.186;11.526;2023-05-07T05:04:03;23.80;51.50
34640;DHT22;22600;48.186;11.526;2023-05-07T05:06:29;23.80;51.50
34640;DHT22;22600;48.186;11.526;2023-05-07T05:08:54;23.80;51.50
34640;DHT22;22600;48.186;11.526;2023-05-07T05:11:20;23.80;51.50
34640;DHT22;22600;48.186;11.526;2023-05-07T05:13:46;24.20;51.70
34640;DHT22;22600;48.186;11.526;2023-05-07T05:16:14;23.90;51.50
34640;DHT22;22600;48.186;11.526;2023-05-07T05:18:39;23.80;51.40
34640;DHT22;22600;48.186;11.526;2023-05-07T05:21:05;23.90;51.50
34640;DHT22;22600;48.186;11.526;2023-05-07T05:23:30;23.90;51.40
34640;DHT22;22600;48.186;11.526;2023-05-07T05:25:56;23.80;51.40
34640;DHT22;22600;48.186;11.526;2023-05-07T05:28:24;23.90;51.40
34640;DHT22;22600;48.186;11.526;2023-05-07T05:30:50;25.40;52.10
34640;DHT22;22600;48.186;11.526;2023-05-07T05:33:15;24.00;51.40
34640;DHT22;22600;48.186;11.526;2023-05-07T05:35:41;24.00;51.40
34640;DHT22;22600;48.186;11.526;2023-05-07T05:38:06;24.00;51.30
34640;DHT22;22600;48.186;11.526;2023-05-07T05:40:32;24.00;51.30
34640;DHT22;22600;48.186;11.526;2023-05-07T05:42:58;24.20;51.40
34640;DHT22;22600;48.186;11.526;2023-05-07T05:45:24;24.00;51.30
34640;DHT22;22600;48.186;11.526;2023-05-07T05:47:49;24.10;51.30
34640;DHT22;22600;48.186;11.526;2023-05-07T05:50:15;24.00;51.30
34640;DHT22;22600;48.186;11.526;2023-05-07T05:52:40;24.10;51.30
34640;DHT22;22600;48.186;11.526;2023-05-07T05:55:06;24.10;51.20
34640;DHT22;22600;48.186;11.526;2023-05-07T05:57:32;24.10;51.20
34640;DHT22;22600;48.186;11.526;2023-05-07T05:59:57;24.10;51.20
34640;DHT22;22600;48.186;11.526;2023-05-07T06:02:23;24.10;51.10
34640;DHT22;22600;48.186;11.526;2023-05-07T06:04:48;24.80;51.40
34640;DHT22;22600;48.186;11.526;2023-05-07T06:07:14;24.20;51.10
34640;DHT22;22600;48.186;11.526;2023-05-07T06:09:39;24.30;51.10
34640;DHT22;22600;48.186;11.526;2023-05-07T06:12:05;24.20;51.00
34640;DHT22;22600;48.186;11.526;2023-05-07T06:14:30;24.20;51.00
34640;DHT22;22600;48.186;11.526;2023-05-07T06:16:56;24.20;50.90
34640;DHT22;22600;48.186;11.526;2023-05-07T06:19:22;24.20;50.90
34640;DHT22;22600;48.186;11.526;2023-05-07T06:21:49;24.30;50.90
34640;DHT22;22600;48.186;11.526;2023-05-07T06:24:14;24.30;50.90
34640;DHT22;22600;48.186;11.526;2023-05-07T06:26:40;24.30;50.90
34640;DHT22;22600;48.186;11.526;2023-05-07T06:29:06;24.30;50.90
34640;DHT22;22600;48.186;11.526;2023-05-07T06:31:31;24.30;50.80
34640;DHT22;22600;48.186;11.526;2023-05-07T06:33:59;24.30;50.80
34640;DHT22;22600;48.186;11.526;2023-05-07T06:36:25;24.40;50.80
34640;DHT22;22600;48.186;11.526;2023-05-07T06:38:51;24.90;51.00
34640;DHT22;22600;48.186;11.526;2023-05-07T06:41:17;24.40;50.80
34640;DHT22;22600;48.186;11.526;2023-05-07T06:43:42;24.40;50.70
34640;DHT22;22600;48.186;11.526;2023-05-07T06:46:07;24.40;50.70
34640;DHT22;22600;48.186;11.526;2023-05-07T06:48:33;24.40;50.70
34640;DHT22;22600;48.186;11.526;2023-05-07T06:50:58;24.40;50.70
34640;DHT22;22600;48.186;11.526;2023-05-07T06:53:24;24.50;50.70
34640;DHT22;22600;48.186;11.526;2023-05-07T06:55:51;25.00;50.90
34640;DHT22;22600;48.186;11.526;2023-05-07T06:58:17;24.50;50.60
34640;DHT22;22600;48.186;11.526;2023-05-07T07:00:42;24.50;50.60
34640;DHT22;22600;48.186;11.526;2023-05-07T07:03:08;24.60;50.60
34640;DHT22;22600;48.186;11.526;2023-05-07T07:05:33;24.50;50.50
34640;DHT22;22600;48.186;11.526;2023-05-07T07:07:59;24.60;50.60
34640;DHT22;22600;48.186;11.526;2023-05-07T07:10:24;24.60;50.60
34640;DHT22;22600;48.186;11.526;2023-05-07T07:12:50;24.60;50.50
34640;DHT22;22600;48.186;11.526;2023-05-07T07:15:15;24.50;50.40
34640;DHT22;22600;48.186;11.526;2023-05-07T07:17:41;24.60;50.50
34640;DHT22;22600;48.186;11.526;2023-05-07T07:20:07;24.50;50.40
34640;DHT22;22600;48.186;11.526;2023-05-07T07:22:32;24.60;50.40
34640;DHT22;22600;48.186;11.526;2023-05-07T07:24:58;24.60;50.40
34640;DHT22;22600;48.186;11.526;2023-05-07T07:27:23;24.60;50.40
34640;DHT22;22600;48.186;11.526;2023-05-07T07:29:49;27.20;51.90
34640;DHT22;22600;48.186;11.526;2023-05-07T07:32:14;24.60;50.40
34640;DHT22;22600;48.186;11.526;2023-05-07T07:34:40;24.60;50.40
34640;DHT22;22600;48.186;11.526;2023-05-07T07:37:05;24.80;50.40
34640;DHT22;22600;48.186;11.526;2023-05-07T07:39:31;24.70;50.40
34640;DHT22;22600;48.186;11.526;2023-05-07T07:41:57;24.60;50.90
34640;DHT22;22600;48.186;11.526;2023-05-07T07:44:22;24.60;50.30
34640;DHT22;22600;48.186;11.526;2023-05-07T07:46:48;25.90;51.00
34640;DHT22;22600;48.186;11.526;2023-05-07T07:49:14;24.70;50.30
34640;DHT22;22600;48.186;11.526;2023-05-07T07:51:40;24.70;50.30
34640;DHT22;22600;48.186;11.526;2023-05-07T07:54:05;24.70;50.30
34640;DHT22;22600;48.186;11.526;2023-05-07T07:56:32;24.70;50.30
34640;DHT22;22600;48.186;11.526;2023-05-07T07:58:58;24.70;50.30
34640;DHT22;22600;48.186;11.526;2023-05-07T08:01:24;24.70;50.30
34640;DHT22;22600;48.186;11.526;2023-05-07T08:03:49;24.70;50.30
34640;DHT22;22600;48.186;11.526;2023-05-07T08:06:15;24.80;50.30
34640;DHT22;22600;48.186;11.526;2023-05-07T08:08:41;24.70;50.20
34640;DHT22;22600;48.186;11.526;2023-05-07T08:11:06;24.70;50.20
34640;DHT22;22600;48.186;11.526;2023-05-07T08:13:32;24.80;50.20
34640;DHT22;22600;48.186;11.526;2023-05-07T08:15:57;24.70;50.20
34640;DHT22;22600;48.186;11.526;2023-05-07T08:18:23;24.80;50.20
34640;DHT22;22600;48.186;11.526;2023-05-07T08:20:50;25.90;50.80
34640;DHT22;22600;48.186;11.526;2023-05-07T08:23:15;24.80;50.20
34640;DHT22;22600;48.186;11.526;2023-05-07T08:25:41;24.80;50.20
34640;DHT22;22600;48.186;11.526;2023-05-07T08:28:08;24.80;50.20
34640;DHT22;22600;48.186;11.526;2023-05-07T08:30:33;24.80;50.20
34640;DHT22;22600;48.186;11.526;2023-05-07T08:32:59;24.70;50.20
34640;DHT22;22600;48.186;11.526;2023-05-07T08:35:25;24.80;50.20
34640;DHT22;22600;48.186;11.526;2023-05-07T08:37:51;27.40;51.80
34640;DHT22;22600;48.186;11.526;2023-05-07T08:40:16;24.80;50.20
34640;DHT22;22600;48.186;11.526;2023-05-07T08:42:42;24.80;50.20
34640;DHT22;22600;48.186;11.526;2023-05-07T08:45:09;24.70;50.10
34640;DHT22;22600;48.186;11.526;2023-05-07T08:47:46;24.80;50.20
34640;DHT22;22600;48.186;11.526;2023-05-07T08:50:12;24.80;50.10
34640;DHT22;22600;48.186;11.526;2023-05-07T08:52:38;24.80;50.10
34640;DHT22;22600;48.186;11.526;2023-05-07T08:55:04;27.20;51.70
34640;DHT22;22600;48.186;11.526;2023-05-07T08:57:30;24.80;50.20
34640;DHT22;22600;48.186;11.526;2023-05-07T08:59:55;24.80;50.20
34640;DHT22;22600;48.186;11.526;2023-05-07T09:02:21;24.70;50.10
34640;DHT22;22600;48.186;11.526;2023-05-07T09:04:46;24.80;50.20
34640;DHT22;22600;48.186;11.526;2023-05-07T09:07:12;24.80;50.20
34640;DHT22;22600;48.186;11.526;2023-05-07T09:09:37;24.70;50.10
34640;DHT22;22600;48.186;11.526;2023-05-07T09:12:03;27.00;51.50
34640;DHT22;22600;48.186;11.526;2023-05-07T09:14:29;24.80;50.20
34640;DHT22;22600;48.186;11.526;2023-05-07T09:16:55;24.80;50.20
34640;DHT22;22600;48.186;11.526;2023-05-07T09:19:24;24.80;50.20
34640;DHT22;22600;48.186;11.526;2023-05-07T09:21:57;24.70;50.10
34640;DHT22;22600;48.186;11.526;2023-05-07T09:24:22;24.80;50.20
34640;DHT22;22600;48.186;11.526;2023-05-07T09:26:48;24.80;50.20
34640;DHT22;22600;48.186;11.526;2023-05-07T09:29:15;27.30;51.70
34640;DHT22;22600;48.186;11.526;2023-05-07T09:31:40;24.80;50.20
34640;DHT22;22600;48.186;11.526;2023-05-07T09:34:06;24.80;50.20
34640;DHT22;22600;48.186;11.526;2023-05-07T09:36:32;24.80;50.20
34640;DHT22;22600;48.186;11.526;2023-05-07T09:39:01;24.80;50.20
34640;DHT22;22600;48.186;11.526;2023-05-07T09:41:26;24.70;50.20
34640;DHT22;22600;48.186;11.526;2023-05-07T09:43:55;24.80;50.20
34640;DHT22;22600;48.186;11.526;2023-05-07T09:46:23;24.70;50.20
34640;DHT22;22600;48.186;11.526;2023-05-07T09:48:50;24.80;50.20
34640;DHT22;22600;48.186;11.526;2023-05-07T09:51:22;24.70;50.20
34640;DHT22;22600;48.186;11.526;2023-05-07T09:53:51;24.70;50.20
34640;DHT22;22600;48.186;11.526;2023-05-07T09:56:17;25.10;50.40
34640;DHT22;22600;48.186;11.526;2023-05-07T09:58:43;24.70;50.20
34640;DHT22;22600;48.186;11.526;2023-05-07T10:01:10;24.70;50.30
34640;DHT22;22600;48.186;11.526;2023-05-07T10:03:35;27.40;51.90
34640;DHT22;22600;48.186;11.526;2023-05-07T10:06:01;24.70;50.30
34640;DHT22;22600;48.186;11.526;2023-05-07T10:08:28;24.70;50.30
34640;DHT22;22600;48.186;11.526;2023-05-07T10:10:53;24.70;50.30
34640;DHT22;22600;48.186;11.526;2023-05-07T10:13:19;24.60;50.30
34640;DHT22;22600;48.186;11.526;2023-05-07T10:15:44;24.70;50.30
34640;DHT22;22600;48.186;11.526;2023-05-07T10:18:10;24.60;50.30
34640;DHT22;22600;48.186;11.526;2023-05-07T10:20:37;24.70;50.30
34640;DHT22;22600;48.186;11.526;2023-05-07T10:23:04;24.70;50.30
34640;DHT22;22600;48.186;11.526;2023-05-07T10:25:30;24.60;50.30
34640;DHT22;22600;48.186;11.526;2023-05-07T10:27:57;24.60;50.30
34640;DHT22;22600;48.186;11.526;2023-05-07T10:30:38;24.60;50.30
34640;DHT22;22600;48.186;11.526;2023-05-07T10:33:05;24.60;50.40
34640;DHT22;22600;48.186;11.526;2023-05-07T10:35:37;24.60;50.40
34640;DHT22;22600;48.186;11.526;2023-05-07T10:38:03;27.10;51.90
34640;DHT22;22600;48.186;11.526;2023-05-07T10:40:30;24.60;50.40
34640;DHT22;22600;48.186;11.526;2023-05-07T10:42:59;24.60;50.40
34640;DHT22;22600;48.186;11.526;2023-05-07T10:45:26;24.60;50.40
34640;DHT22;22600;48.186;11.526;2023-05-07T10:50:36;24.60;50.50
34640;DHT22;22600;48.186;11.526;2023-05-07T10:55:49;24.60;50.60
34640;DHT22;22600;48.186;11.526;2023-05-07T11:00:47;24.60;50.60
34640;DHT22;22600;48.186;11.526;2023-05-07T11:03:13;24.50;50.60
34640;DHT22;22600;48.186;11.526;2023-05-07T11:05:40;24.60;50.70
34640;DHT22;22600;48.186;11.526;2023-05-07T11:08:06;25.30;51.10
34640;DHT22;22600;48.186;11.526;2023-05-07T11:10:47;24.60;50.80
34640;DHT22;22600;48.186;11.526;2023-05-07T11:13:12;24.50;50.70
34640;DHT22;22600;48.186;11.526;2023-05-07T11:15:39;24.50;50.80
34640;DHT22;22600;48.186;11.526;2023-05-07T11:18:07;24.50;50.90
34640;DHT22;22600;48.186;11.526;2023-05-07T11:20:49;24.50;50.90
34640;DHT22;22600;48.186;11.526;2023-05-07T11:23:54;24.50;50.90
34640;DHT22;22600;48.186;11.526;2023-05-07T11:26:18;24.50;51.00
34640;DHT22;22600;48.186;11.526;2023-05-07T11:28:43;24.50;51.00
34640;DHT22;22600;48.186;11.526;2023-05-07T11:31:09;24.50;51.10
34640;DHT22;22600;48.186;11.526;2023-05-07T11:33:36;24.50;51.10
34640;DHT22;22600;48.186;11.526;2023-05-07T11:36:01;24.50;51.10
34640;DHT22;22600;48.186;11.526;2023-05-07T11:38:28;24.90;51.30
34640;DHT22;22600;48.186;11.526;2023-05-07T11:40:59;24.50;51.20
34640;DHT22;22600;48.186;11.526;2023-05-07T11:43:29;24.50;51.20
34640;DHT22;22600;48.186;11.526;2023-05-07T11:45:58;24.50;51.20
34640;DHT22;22600;48.186;11.526;2023-05-07T11:48:29;24.40;51.20
34640;DHT22;22600;48.186;11.526;2023-05-07T11:53:26;24.50;51.30
34640;DHT22;22600;48.186;11.526;2023-05-07T11:55:55;24.40;51.20
34640;DHT22;22600;48.186;11.526;2023-05-07T11:58:22;24.50;51.30
34640;DHT22;22600;48.186;11.526;2023-05-07T12:00:48;24.40;51.20
34640;DHT22;22600;48.186;11.526;2023-05-07T12:03:13;24.40;51.20
34640;DHT22;22600;48.186;11.526;2023-05-07T12:05:39;24.40;51.20
34640;DHT22;22600;48.186;11.526;2023-05-07T12:08:07;24.40;51.20
34640;DHT22;22600;48.186;11.526;2023-05-07T12:10:32;24.30;51.20
34640;DHT22;22600;48.186;11.526;2023-05-07T12:12:58;24.60;51.40
34640;DHT22;22600;48.186;11.526;2023-05-07T12:15:23;24.40;51.30
34640;DHT22;22600;48.186;11.526;2023-05-07T12:17:49;24.40;51.30
34640;DHT22;22600;48.186;11.526;2023-05-07T12:20:15;24.40;51.40
34640;DHT22;22600;48.186;11.526;2023-05-07T12:22:41;24.40;51.30
34640;DHT22;22600;48.186;11.526;2023-05-07T12:25:07;24.30;51.30
34640;DHT22;22600;48.186;11.526;2023-05-07T12:27:36;24.40;51.30
34640;DHT22;22600;48.186;11.526;2023-05-07T12:30:02;26.90;52.80
34640;DHT22;22600;48.186;11.526;2023-05-07T12:32:27;24.40;51.40
34640;DHT22;22600;48.186;11.526;2023-05-07T12:34:53;24.40;51.40
34640;DHT22;22600;48.186;11.526;2023-05-07T12:37:25;24.40;51.40
34640;DHT22;22600;48.186;11.526;2023-05-07T12:40:07;24.40;51.40
34640;DHT22;22600;48.186;11.526;2023-05-07T12:42:33;24.40;51.40
34640;DHT22;22600;48.186;11.526;2023-05-07T12:45:00;24.40;51.40
34640;DHT22;22600;48.186;11.526;2023-05-07T12:47:32;24.40;51.40
34640;DHT22;22600;48.186;11.526;2023-05-07T12:49:59;24.50;51.40
34640;DHT22;22600;48.186;11.526;2023-05-07T12:52:24;24.40;51.40
34640;DHT22;22600;48.186;11.526;2023-05-07T12:54:50;24.30;51.40
34640;DHT22;22600;48.186;11.526;2023-05-07T12:57:15;24.40;51.40
34640;DHT22;22600;48.186;11.526;2023-05-07T12:59:44;24.40;51.40
34640;DHT22;22600;48.186;11.526;2023-05-07T13:02:09;24.40;52.00
34640;DHT22;22600;48.186;11.526;2023-05-07T13:04:35;24.40;51.40
34640;DHT22;22600;48.186;11.526;2023-05-07T13:07:00;24.40;51.40
34640;DHT22;22600;48.186;11.526;2023-05-07T13:09:26;24.40;51.50
34640;DHT22;22600;48.186;11.526;2023-05-07T13:11:52;24.40;51.50
34640;DHT22;22600;48.186;11.526;2023-05-07T13:14:17;24.40;51.50
34640;DHT22;22600;48.186;11.526;2023-05-07T13:16:46;24.40;51.50
34640;DHT22;22600;48.186;11.526;2023-05-07T13:19:12;24.80;51.70
34640;DHT22;22600;48.186;11.526;2023-05-07T13:21:37;24.40;52.10
34640;DHT22;22600;48.186;11.526;2023-05-07T13:24:02;24.40;51.50
34640;DHT22;22600;48.186;11.526;2023-05-07T13:26:29;24.40;51.50
34640;DHT22;22600;48.186;11.526;2023-05-07T13:28:55;24.40;51.50
34640;DHT22;22600;48.186;11.526;2023-05-07T13:31:21;24.40;51.50
34640;DHT22;22600;48.186;11.526;2023-05-07T13:33:46;24.40;51.50
34640;DHT22;22600;48.186;11.526;2023-05-07T13:36:12;24.50;51.60
34640;DHT22;22600;48.186;11.526;2023-05-07T13:38:38;24.40;51.50
34640;DHT22;22600;48.186;11.526;2023-05-07T13:41:04;24.40;51.50
34640;DHT22;22600;48.186;11.526;2023-05-07T13:43:29;24.40;51.50
34640;DHT22;22600;48.186;11.526;2023-05-07T13:45:55;24.40;51.50
34640;DHT22;22600;48.186;11.526;2023-05-07T13:48:20;24.40;51.60
34640;DHT22;22600;48.186;11.526;2023-05-07T13:50:46;24.40;51.60
34640;DHT22;22600;48.186;11.526;2023-05-07T13:53:11;24.40;51.60
34640;DHT22;22600;48.186;11.526;2023-05-07T13:55:36;24.40;51.60
34640;DHT22;22600;48.186;11.526;2023-05-07T13:58:02;24.30;51.60
34640;DHT22;22600;48.186;11.526;2023-05-07T14:00:28;24.40;51.60
34640;DHT22;22600;48.186;11.526;2023-05-07T14:02:54;24.40;51.60
34640;DHT22;22600;48.186;11.526;2023-05-07T14:05:20;24.40;51.60
34640;DHT22;22600;48.186;11.526;2023-05-07T14:07:45;24.30;51.60
34640;DHT22;22600;48.186;11.526;2023-05-07T14:10:12;24.40;51.60
34640;DHT22;22600;48.186;11.526;2023-05-07T14:12:38;24.40;51.60
34640;DHT22;22600;48.186;11.526;2023-05-07T14:15:03;24.30;51.60
34640;DHT22;22600;48.186;11.526;2023-05-07T14:17:29;24.40;51.70
34640;DHT22;22600;48.186;11.526;2023-05-07T14:19:55;24.40;51.70
34640;DHT22;22600;48.186;11.526;2023-05-07T14:22:21;24.30;51.70
34640;DHT22;22600;48.186;11.526;2023-05-07T14:24:47;24.40;51.70
34640;DHT22;22600;48.186;11.526;2023-05-07T14:27:13;26.40;52.80
34640;DHT22;22600;48.186;11.526;2023-05-07T14:29:38;24.30;51.60
34640;DHT22;22600;48.186;11.526;2023-05-07T14:32:04;24.40;51.70
34640;DHT22;22600;48.186;11.526;2023-05-07T14:34:29;24.40;51.70
34640;DHT22;22600;48.186;11.526;2023-05-07T14:36:55;24.30;51.60
34640;DHT22;22600;48.186;11.526;2023-05-07T14:39:21;25.40;52.20
34640;DHT22;22600;48.186;11.526;2023-05-07T14:41:46;24.40;51.70
34640;DHT22;22600;48.186;11.526;2023-05-07T14:44:12;24.20;51.60
34640;DHT22;22600;48.186;11.526;2023-05-07T14:46:37;24.40;51.70
34640;DHT22;22600;48.186;11.526;2023-05-07T14:49:03;24.40;51.70
34640;DHT22;22600;48.186;11.526;2023-05-07T14:51:28;24.40;51.70
34640;DHT22;22600;48.186;11.526;2023-05-07T14:53:54;24.30;51.70
34640;DHT22;22600;48.186;11.526;2023-05-07T14:56:20;24.40;51.70
34640;DHT22;22600;48.186;11.526;2023-05-07T14:58:46;24.30;51.70
34640;DHT22;22600;48.186;11.526;2023-05-07T15:01:12;27.70;53.70
34640;DHT22;22600;48.186;11.526;2023-05-07T15:03:37;24.40;51.70
34640;DHT22;22600;48.186;11.526;2023-05-07T15:06:03;24.30;51.70
34640;DHT22;22600;48.186;11.526;2023-05-07T15:08:28;24.40;51.70
34640;DHT22;22600;48.186;11.526;2023-05-07T15:10:54;24.30;51.70
34640;DHT22;22600;48.186;11.526;2023-05-07T15:13:20;24.40;51.70
34640;DHT22;22600;48.186;11.526;2023-05-07T15:15:46;24.30;51.70
34640;DHT22;22600;48.186;11.526;2023-05-07T15:18:11;24.30;51.70